createdAt,value
2023-03-13T00:02:27.716Z,67.34
2023-03-13T00:04:57.909Z,66.69
2023-03-13T00:07:27.843Z,67.08
2023-03-13T00:09:57.692Z,67.08
2023-03-13T00:12:27.952Z,67.50
2023-03-13T00:14:57.966Z,67.49
2023-03-13T00:17:27.827Z,67.54
2023-03-13T00:19:58.115Z,67.40
2023-03-13T00:22:28.113Z,67.20
2023-03-13T00:24:57.947Z,67.22
2023-03-13T00:27:27.811Z,67.12
2023-03-13T00:29:57.728Z,67.31
2023-03-13T00:32:27.831Z,67.06
2023-03-13T00:34:59.285Z,67.10
2023-03-13T00:37:29.587Z,67.21
2023-03-13T00:39:59.878Z,66.91
2023-03-13T00:42:31.233Z,67.16
2023-03-13T00:45:01.481Z,66.94
2023-03-13T00:47:31.371Z,67.32
2023-03-13T00:50:01.494Z,67.16
2023-03-13T00:52:31.545Z,67.49
2023-03-13T00:55:19.831Z,67.16
2023-03-13T00:57:50.240Z,67.42
2023-03-13T01:00:20.543Z,67.79
2023-03-13T01:02:51.073Z,67.25
2023-03-13T01:05:21.104Z,67.28
2023-03-13T01:07:51.098Z,67.49
2023-03-13T01:10:21.025Z,67.35
2023-03-13T01:15:54.678Z,67.14
2023-03-13T01:18:24.811Z,67.07
2023-03-13T01:20:55.734Z,66.97
2023-03-13T01:23:26.192Z,66.87
2023-03-13T01:25:58.502Z,66.70
2023-03-13T01:28:29.826Z,66.53
2023-03-13T01:31:02.442Z,66.20
2023-03-13T01:33:32.838Z,66.95
2023-03-13T01:36:06.840Z,66.48
2023-03-13T01:38:45.986Z,66.46
2023-03-13T01:41:16.142Z,66.38
2023-03-13T01:43:47.985Z,66.75
2023-03-13T01:46:30.914Z,66.66
2023-03-13T01:49:17.671Z,66.18
2023-03-13T01:52:09.490Z,66.12
2023-03-13T01:54:54.701Z,65.75
2023-03-13T01:57:33.184Z,65.77
2023-03-13T02:00:14.463Z,65.20
2023-03-13T02:02:51.714Z,65.91
2023-03-13T02:05:42.805Z,64.86
2023-03-13T02:09:07.301Z,65.47
2023-03-13T02:14:47.237Z,64.90
2023-03-13T02:17:17.889Z,64.95
2023-03-13T02:19:56.252Z,64.81
2023-03-13T02:22:35.480Z,65.09
2023-03-13T02:25:26.840Z,64.32
2023-03-13T02:28:16.107Z,64.66
2023-03-13T02:33:50.354Z,64.22
2023-03-13T02:36:23.393Z,64.11
2023-03-13T02:39:01.884Z,63.96
2023-03-13T02:41:35.850Z,63.80
2023-03-13T02:44:08.160Z,63.60
2023-03-13T02:46:54.942Z,63.74
2023-03-13T02:49:31.304Z,63.24
2023-03-13T02:52:15.552Z,63.15
2023-03-13T02:55:09.423Z,62.82
2023-03-13T02:57:57.800Z,62.60
2023-03-13T03:00:46.138Z,62.73
2023-03-13T03:03:16.411Z,62.68
2023-03-13T03:05:46.564Z,62.79
2023-03-13T03:08:19.350Z,62.63
2023-03-13T03:10:49.449Z,62.35
2023-03-13T03:16:13.099Z,62.40
2023-03-13T03:18:43.560Z,62.17
2023-03-13T03:21:31.703Z,61.86
2023-03-13T03:26:47.164Z,61.45
2023-03-13T03:32:35.740Z,61.70
2023-03-13T03:35:24.100Z,61.75
2023-03-13T03:38:13.880Z,60.75
2023-03-13T03:43:49.614Z,60.95
2023-03-13T03:46:38.545Z,60.45
2023-03-13T03:49:08.696Z,60.75
2023-03-13T03:51:38.780Z,60.50
2023-03-13T03:54:09.785Z,60.43
2023-03-13T03:56:59.312Z,59.60
2023-03-13T03:59:29.958Z,59.03
2023-03-13T04:04:50.514Z,59.28
2023-03-13T04:07:24.396Z,58.27
2023-03-13T04:09:54.502Z,58.37
2023-03-13T04:12:30.847Z,58.23
2023-03-13T04:15:01.187Z,57.81
2023-03-13T04:17:49.372Z,58.32
2023-03-13T04:20:22.927Z,57.96
2023-03-13T04:22:53.114Z,57.74
2023-03-13T04:25:23.363Z,58.17
2023-03-13T04:27:55.750Z,57.67
2023-03-13T04:30:43.906Z,57.87
2023-03-13T04:33:49.844Z,57.84
2023-03-13T04:36:32.090Z,58.28
2023-03-13T04:39:31.507Z,58.45
2023-03-13T04:42:22.472Z,57.89
2023-03-13T04:45:15.041Z,58.82
2023-03-13T04:47:51.369Z,58.50
2023-03-13T04:50:47.709Z,58.39
2023-03-13T04:53:23.500Z,58.33
2023-03-13T04:56:09.597Z,58.56
2023-03-13T04:58:57.586Z,58.46
2023-03-13T05:01:46.685Z,58.59
2023-03-13T05:04:27.763Z,58.82
2023-03-13T05:09:59.606Z,58.20
2023-03-13T05:12:35.488Z,58.20
2023-03-13T05:15:24.516Z,57.96
2023-03-13T05:18:12.905Z,58.06
2023-03-13T05:20:49.168Z,58.22
2023-03-13T05:23:30.406Z,57.81
2023-03-13T05:32:29.956Z,57.95
2023-03-13T05:35:18.111Z,57.89
2023-03-13T05:41:12.400Z,56.80
2023-03-13T05:44:01.243Z,56.93
2023-03-13T05:46:49.743Z,56.79
2023-03-13T05:49:36.760Z,56.51
2023-03-13T05:52:25.330Z,56.58
2023-03-13T05:55:08.196Z,56.97
2023-03-13T06:01:21.879Z,56.83
2023-03-13T06:06:51.158Z,58.22
2023-03-13T06:09:39.301Z,57.35
2023-03-13T06:12:11.354Z,57.77
2023-03-13T06:14:59.586Z,58.31
2023-03-13T06:17:47.989Z,58.06
2023-03-13T06:20:18.615Z,57.39
2023-03-13T06:22:49.247Z,58.04
2023-03-13T06:25:19.477Z,57.68
2023-03-13T06:27:49.509Z,57.45
2023-03-13T06:33:05.494Z,58.22
2023-03-13T06:35:56.947Z,57.71
2023-03-13T06:38:45.368Z,57.58
2023-03-13T06:41:15.648Z,57.21
2023-03-13T06:43:45.791Z,57.79
2023-03-13T06:46:21.658Z,57.61
2023-03-13T06:49:09.912Z,57.20
2023-03-13T06:51:39.950Z,57.15
2023-03-13T06:54:10.079Z,57.87
2023-03-13T06:56:58.629Z,57.76
2023-03-13T06:59:47.911Z,57.01
2023-03-13T07:02:36.177Z,57.66
2023-03-13T07:05:08.006Z,56.84
2023-03-13T07:07:56.182Z,56.57
2023-03-13T07:10:26.342Z,56.92
2023-03-13T07:12:56.266Z,56.71
2023-03-13T07:15:26.263Z,56.36
2023-03-13T07:17:58.767Z,56.05
2023-03-13T07:20:28.900Z,56.66
2023-03-13T07:22:59.123Z,56.21
2023-03-13T07:25:29.128Z,56.72
2023-03-13T07:27:59.029Z,56.27
2023-03-13T07:30:30.011Z,56.01
2023-03-13T07:35:55.858Z,56.52
2023-03-13T07:38:25.916Z,56.63
2023-03-13T07:40:58.370Z,56.76
2023-03-13T07:43:28.859Z,56.48
2023-03-13T07:46:07.869Z,56.67
2023-03-13T07:48:40.576Z,56.55
2023-03-13T07:54:03.018Z,56.75
2023-03-13T07:56:33.441Z,56.34
2023-03-13T07:59:03.756Z,56.74
2023-03-13T08:01:34.139Z,56.05
2023-03-13T08:04:04.486Z,56.45
2023-03-13T08:06:53.843Z,57.18
2023-03-13T08:09:24.622Z,56.43
2023-03-13T08:12:12.829Z,56.41
2023-03-13T08:14:43.011Z,56.46
2023-03-13T08:17:13.109Z,56.42
2023-03-13T08:20:01.561Z,56.65
2023-03-13T08:22:31.701Z,56.77
2023-03-13T08:25:01.600Z,57.29
2023-03-13T08:27:32.738Z,56.95
2023-03-13T08:32:48.391Z,57.21
2023-03-13T08:35:18.633Z,57.06
2023-03-13T08:37:50.149Z,57.13
2023-03-13T08:40:20.694Z,56.62
2023-03-13T08:42:50.714Z,56.75
2023-03-13T08:45:20.597Z,56.61
2023-03-13T08:47:55.864Z,57.08
2023-03-13T08:50:26.022Z,56.88
2023-03-13T08:52:56.684Z,56.10
2023-03-13T08:55:26.800Z,56.48
2023-03-13T08:57:56.722Z,56.77
2023-03-13T09:00:26.789Z,57.47
2023-03-13T09:02:56.694Z,56.90
2023-03-13T09:05:26.847Z,57.26
2023-03-13T09:07:57.244Z,57.03
2023-03-13T09:10:27.345Z,57.33
2023-03-13T09:12:58.186Z,57.51
2023-03-13T09:15:28.493Z,57.32
2023-03-13T09:17:59.045Z,57.50
2023-03-13T09:20:29.092Z,56.98
2023-03-13T09:22:58.897Z,57.01
2023-03-13T09:25:28.944Z,57.31
2023-03-13T09:27:58.762Z,57.13
2023-03-13T09:30:28.967Z,56.97
2023-03-13T09:32:59.108Z,57.11
2023-03-13T09:35:58.509Z,56.83
2023-03-13T09:38:28.594Z,56.73
2023-03-13T09:41:06.450Z,56.77
2023-03-13T09:43:55.003Z,56.54
2023-03-13T09:46:42.479Z,57.10
2023-03-13T09:49:30.599Z,57.63
2023-03-13T09:52:19.910Z,57.51
2023-03-13T09:54:54.750Z,56.39
2023-03-13T09:57:43.307Z,56.72
2023-03-13T10:00:22.263Z,57.21
2023-03-13T10:03:09.985Z,57.14
2023-03-13T10:05:47.955Z,57.38
2023-03-13T10:08:25.354Z,56.92
2023-03-13T10:11:22.302Z,57.11
2023-03-13T10:14:14.129Z,56.94
2023-03-13T10:17:37.064Z,57.75
2023-03-13T10:20:24.838Z,57.12
2023-03-13T10:23:14.896Z,56.80
2023-03-13T10:25:44.890Z,57.10
2023-03-13T10:28:17.968Z,57.63
2023-03-13T10:31:05.765Z,57.76
2023-03-13T10:33:39.402Z,57.66
2023-03-13T10:36:12.698Z,57.98
2023-03-13T10:38:57.015Z,57.93
2023-03-13T10:41:40.597Z,57.67
2023-03-13T10:44:18.239Z,57.70
2023-03-13T10:46:50.549Z,57.87
2023-03-13T10:49:26.276Z,57.54
2023-03-13T10:51:57.726Z,57.35
2023-03-13T10:54:32.887Z,57.38
2023-03-13T10:57:21.286Z,57.98
2023-03-13T10:59:56.573Z,57.92
2023-03-13T11:02:29.822Z,57.83
2023-03-13T11:05:01.961Z,57.69
2023-03-13T11:07:42.653Z,57.84
2023-03-13T11:10:19.171Z,58.00
2023-03-13T11:12:51.480Z,57.94
2023-03-13T11:15:24.719Z,57.80
2023-03-13T11:18:06.015Z,57.19
2023-03-13T11:20:39.075Z,57.94
2023-03-13T11:23:26.356Z,57.78
2023-03-13T11:26:18.354Z,57.63
2023-03-13T11:28:58.131Z,57.87
2023-03-13T11:31:40.099Z,57.55
2023-03-13T11:34:34.676Z,57.53
2023-03-13T11:37:07.318Z,57.37
2023-03-13T11:39:53.480Z,57.35
2023-03-13T11:42:44.682Z,57.18
2023-03-13T11:45:33.178Z,57.44
2023-03-13T11:48:08.973Z,56.94
2023-03-13T11:51:01.180Z,57.03
2023-03-13T11:53:47.736Z,57.07
2023-03-13T11:56:26.254Z,56.59
2023-03-13T11:59:11.070Z,56.53
2023-03-13T12:02:06.580Z,56.37
2023-03-13T12:04:43.534Z,56.92
2023-03-13T12:07:24.255Z,56.80
2023-03-13T12:10:34.469Z,56.90
2023-03-13T12:13:16.516Z,56.50
2023-03-13T12:15:54.668Z,56.69
2023-03-13T12:18:43.242Z,56.09
2023-03-13T12:21:25.787Z,55.89
2023-03-13T12:24:36.434Z,56.03
2023-03-13T12:27:34.987Z,55.78
2023-03-13T12:30:09.733Z,55.64
2023-03-13T12:32:43.590Z,55.82
2023-03-13T12:35:37.194Z,56.08
2023-03-13T12:38:32.509Z,55.92
2023-03-13T12:41:30.353Z,56.15
2023-03-13T12:44:08.749Z,55.94
2023-03-13T12:46:44.159Z,56.63
2023-03-13T12:49:48.547Z,56.42
2023-03-13T12:52:21.486Z,56.83
2023-03-13T12:55:22.266Z,56.85
2023-03-13T12:58:10.747Z,56.96
2023-03-13T13:00:43.933Z,56.56
2023-03-13T13:03:25.349Z,57.03
2023-03-13T13:06:10.124Z,56.64
2023-03-13T13:09:11.601Z,56.84
2023-03-13T13:11:41.554Z,56.41
2023-03-13T13:14:31.508Z,56.75
2023-03-13T13:17:16.259Z,56.82
2023-03-13T13:19:48.883Z,56.99
2023-03-13T13:22:39.921Z,56.46
2023-03-13T13:25:15.753Z,56.56
2023-03-13T13:27:45.993Z,56.58
2023-03-13T13:30:22.477Z,55.74
2023-03-13T13:32:56.460Z,55.66
2023-03-13T13:36:44.917Z,55.72
2023-03-13T13:39:48.357Z,55.77
2023-03-13T13:42:33.789Z,55.33
2023-03-13T13:45:19.769Z,55.41
2023-03-13T13:47:51.710Z,54.43
2023-03-13T13:50:21.771Z,54.87
2023-03-13T13:52:53.065Z,54.81
2023-03-13T13:55:29.040Z,54.96
2023-03-13T13:58:25.394Z,54.60
2023-03-13T14:01:04.304Z,54.99
2023-03-13T14:03:36.029Z,54.43
2023-03-13T14:06:27.198Z,54.71
2023-03-13T14:09:04.579Z,54.25
2023-03-13T14:11:41.871Z,54.76
2023-03-13T14:14:18.804Z,54.46
2023-03-13T14:16:53.170Z,54.39
2023-03-13T14:19:40.663Z,54.82
2023-03-13T14:22:12.962Z,54.81
2023-03-13T14:24:43.381Z,54.50
2023-03-13T14:27:21.822Z,54.67
2023-03-13T14:30:11.346Z,54.94
2023-03-13T14:32:42.286Z,55.14
2023-03-13T14:35:13.991Z,55.46
2023-03-13T14:37:49.660Z,55.22
2023-03-13T14:40:39.794Z,55.33
2023-03-13T14:43:40.539Z,55.34
2023-03-13T14:46:23.331Z,55.42
2023-03-13T14:48:58.077Z,55.52
2023-03-13T14:51:31.590Z,55.46
2023-03-13T14:54:06.559Z,55.63
2023-03-13T14:56:44.497Z,55.30
2023-03-13T14:59:21.721Z,55.22
2023-03-13T15:02:15.371Z,55.48
2023-03-13T15:04:54.986Z,54.95
2023-03-13T15:07:27.054Z,55.19
2023-03-13T15:09:57.270Z,56.12
2023-03-13T15:12:28.852Z,56.32
2023-03-13T15:15:00.181Z,56.37
2023-03-13T15:17:30.663Z,56.11
2023-03-13T15:20:02.099Z,56.31
2023-03-13T15:22:35.105Z,56.32
2023-03-13T15:25:08.137Z,56.06
2023-03-13T15:27:38.832Z,56.33
2023-03-13T15:30:12.722Z,56.28
2023-03-13T15:32:44.796Z,56.55
2023-03-13T15:35:20.829Z,56.49
2023-03-13T15:37:50.908Z,56.31
2023-03-13T15:40:22.195Z,56.20
2023-03-13T15:42:52.721Z,55.84
2023-03-13T15:45:23.623Z,55.79
2023-03-13T15:47:54.088Z,55.88
2023-03-13T15:50:31.955Z,55.93
2023-03-13T15:53:03.416Z,55.64
2023-03-13T15:55:33.958Z,55.63
2023-03-13T15:58:04.158Z,55.89
2023-03-13T16:00:34.065Z,55.62
2023-03-13T16:03:04.286Z,55.52
2023-03-13T16:05:34.215Z,55.60
2023-03-13T16:08:04.345Z,55.57
2023-03-13T16:10:35.246Z,55.40
2023-03-13T16:13:05.786Z,55.56
2023-03-13T16:15:38.424Z,55.33
2023-03-13T16:18:11.391Z,55.08
2023-03-13T16:20:43.335Z,55.16
2023-03-13T16:23:13.414Z,55.16
2023-03-13T16:25:44.876Z,55.36
2023-03-13T16:28:17.077Z,55.13
2023-03-13T16:30:49.518Z,55.10
2023-03-13T16:33:20.117Z,54.86
2023-03-13T16:35:52.263Z,54.80
2023-03-13T16:38:23.693Z,55.17
2023-03-13T16:40:55.016Z,54.80
2023-03-13T16:43:24.915Z,55.00
2023-03-13T16:45:55.020Z,54.96
2023-03-13T16:48:25.677Z,55.33
2023-03-13T16:50:55.787Z,54.73
2023-03-13T16:53:25.852Z,54.95
2023-03-13T16:55:58.761Z,54.71
2023-03-13T16:58:28.910Z,54.95
2023-03-13T17:01:05.354Z,54.66
2023-03-13T17:03:36.431Z,54.43
2023-03-13T17:06:06.852Z,54.54
2023-03-13T17:08:37.027Z,54.63
2023-03-13T17:11:07.538Z,54.43
2023-03-13T17:13:39.018Z,54.62
2023-03-13T17:16:24.700Z,54.36
2023-03-13T17:18:56.264Z,54.48
2023-03-13T17:21:29.521Z,54.43
2023-03-13T17:24:01.669Z,54.18
2023-03-13T17:26:40.468Z,54.47
2023-03-13T17:29:16.913Z,54.43
2023-03-13T17:31:47.998Z,54.69
2023-03-13T17:34:19.048Z,54.37
2023-03-13T17:36:50.990Z,54.38
2023-03-13T17:39:23.611Z,54.23
2023-03-13T17:41:53.934Z,54.40
2023-03-13T17:44:23.886Z,54.94
2023-03-13T17:46:54.804Z,54.13
2023-03-13T17:49:24.927Z,54.25
2023-03-13T17:51:55.045Z,54.70
2023-03-13T17:54:25.017Z,54.37
2023-03-13T17:56:55.366Z,54.50
2023-03-13T17:59:25.415Z,54.19
2023-03-13T18:01:55.460Z,54.72
2023-03-13T18:04:25.428Z,54.78
2023-03-13T18:06:55.394Z,54.52
2023-03-13T18:09:25.696Z,54.53
2023-03-13T18:11:55.784Z,54.42
2023-03-13T18:14:25.835Z,54.38
2023-03-13T18:16:59.456Z,54.66
2023-03-13T18:19:29.674Z,54.48
2023-03-13T18:21:59.726Z,54.89
2023-03-13T18:24:29.665Z,54.96
2023-03-13T18:27:01.189Z,54.72
2023-03-13T18:29:31.534Z,54.93
2023-03-13T18:32:05.369Z,54.93
2023-03-13T18:34:37.210Z,54.63
2023-03-13T18:37:18.462Z,54.94
2023-03-13T18:39:48.674Z,54.86
2023-03-13T18:42:19.254Z,54.99
2023-03-13T18:44:49.352Z,55.16
2023-03-13T18:47:21.936Z,55.43
2023-03-13T18:49:53.124Z,55.53
2023-03-13T18:52:23.143Z,55.53
2023-03-13T18:54:52.999Z,55.62
2023-03-13T18:57:23.805Z,55.65
2023-03-13T18:59:53.912Z,55.89
2023-03-13T19:02:23.790Z,55.77
2023-03-13T19:04:54.218Z,55.83
2023-03-13T19:07:29.605Z,56.09
2023-03-13T19:09:59.677Z,56.47
2023-03-13T19:12:29.731Z,56.63
2023-03-13T19:14:59.657Z,56.52
2023-03-13T19:17:31.260Z,56.35
2023-03-13T19:20:01.252Z,56.45
2023-03-13T19:22:31.315Z,56.31
2023-03-13T19:25:01.354Z,55.85
2023-03-13T19:27:31.594Z,55.99
2023-03-13T19:30:01.692Z,55.96
2023-03-13T19:32:31.585Z,56.28
2023-03-13T19:35:01.484Z,56.31
2023-03-13T19:37:31.284Z,56.22
2023-03-13T19:40:01.105Z,56.22
2023-03-13T19:42:31.041Z,56.24
2023-03-13T19:45:01.328Z,56.35
2023-03-13T19:47:31.550Z,56.24
2023-03-13T19:50:02.671Z,56.58
2023-03-13T19:52:32.781Z,56.52
2023-03-13T19:55:05.887Z,56.81
2023-03-13T19:57:36.676Z,56.93
2023-03-13T20:00:08.348Z,56.82
2023-03-13T20:02:42.607Z,57.12
2023-03-13T20:05:13.072Z,56.98
2023-03-13T20:07:43.159Z,57.08
2023-03-13T20:10:13.546Z,57.28
2023-03-13T20:12:43.564Z,57.16
2023-03-13T20:15:14.149Z,56.63
2023-03-13T20:17:50.991Z,57.12
2023-03-13T20:20:25.858Z,56.86
2023-03-13T20:22:57.944Z,56.72
2023-03-13T20:25:30.914Z,56.76
2023-03-13T20:28:00.929Z,56.77
2023-03-13T20:30:30.813Z,57.05
2023-03-13T20:33:00.777Z,57.24
2023-03-13T20:35:31.203Z,57.18
2023-03-13T20:38:02.960Z,57.03
2023-03-13T20:40:36.468Z,57.41
2023-03-13T20:43:06.581Z,57.36
2023-03-13T20:45:36.911Z,57.23
2023-03-13T20:48:07.178Z,57.36
2023-03-13T20:50:37.381Z,56.91
2023-03-13T20:53:07.654Z,57.08
2023-03-13T20:55:40.215Z,57.17
2023-03-13T20:58:11.133Z,57.07
2023-03-13T21:00:41.157Z,57.83
2023-03-13T21:03:11.523Z,57.67
2023-03-13T21:05:42.455Z,57.68
2023-03-13T21:08:13.615Z,57.30
2023-03-13T21:10:44.701Z,57.32
2023-03-13T21:13:15.046Z,57.68
2023-03-13T21:15:45.529Z,57.33
2023-03-13T21:18:15.551Z,57.72
2023-03-13T21:20:45.447Z,57.93
2023-03-13T21:23:15.281Z,57.61
2023-03-13T21:25:45.145Z,57.88
2023-03-13T21:28:15.363Z,57.75
2023-03-13T21:30:45.464Z,58.32
2023-03-13T21:33:16.494Z,57.64
2023-03-13T21:35:49.063Z,57.87
2023-03-13T21:38:20.076Z,57.87
2023-03-13T21:40:50.081Z,57.95
2023-03-13T21:43:19.973Z,57.75
2023-03-13T21:45:49.866Z,57.81
2023-03-13T21:48:19.809Z,57.93
2023-03-13T21:50:50.234Z,58.21
2023-03-13T21:53:21.247Z,58.09
2023-03-13T21:55:53.332Z,58.39
2023-03-13T21:58:23.371Z,58.58
2023-03-13T22:00:57.446Z,58.17
2023-03-13T22:03:31.104Z,58.24
2023-03-13T22:06:01.703Z,58.34
2023-03-13T22:08:31.846Z,58.67
2023-03-13T22:11:02.084Z,58.58
2023-03-13T22:13:31.935Z,58.57
2023-03-13T22:16:02.055Z,58.37
2023-03-13T22:18:35.549Z,58.53
2023-03-13T22:21:06.010Z,58.50
2023-03-13T22:23:36.133Z,58.55
2023-03-13T22:26:07.005Z,58.29
2023-03-13T22:28:37.472Z,58.91
2023-03-13T22:31:09.291Z,59.32
2023-03-13T22:33:39.588Z,58.83
2023-03-13T22:36:10.783Z,58.98
2023-03-13T22:38:41.156Z,58.45
2023-03-13T22:41:14.334Z,58.85
2023-03-13T22:43:44.380Z,58.77
2023-03-13T22:46:15.146Z,58.56
2023-03-13T22:48:45.131Z,58.82
2023-03-13T22:51:17.183Z,58.22
2023-03-13T22:53:47.399Z,58.46
2023-03-13T22:56:17.349Z,57.91
2023-03-13T22:58:47.645Z,57.41
2023-03-13T23:02:13.932Z,57.71
2023-03-13T23:04:44.092Z,57.17
2023-03-13T23:07:13.983Z,57.39
2023-03-13T23:09:43.862Z,57.43
2023-03-13T23:12:14.745Z,57.51
2023-03-13T23:14:44.769Z,57.71
2023-03-13T23:17:14.822Z,57.54
2023-03-13T23:19:44.689Z,57.05
2023-03-13T23:22:19.857Z,57.04
2023-03-13T23:24:51.478Z,57.03
2023-03-13T23:27:21.916Z,56.95
2023-03-13T23:32:44.585Z,57.00
2023-03-13T23:35:15.813Z,56.66
2023-03-13T23:37:49.021Z,56.72
2023-03-13T23:40:19.458Z,56.73
2023-03-13T23:42:52.558Z,56.55
2023-03-13T23:45:22.572Z,56.47
2023-03-13T23:47:55.223Z,56.43
2023-03-13T23:50:26.201Z,56.41
2023-03-13T23:52:57.702Z,56.57
2023-03-13T23:55:28.064Z,56.31
2023-03-13T23:57:58.057Z,56.45
